createdAt,value
2023-01-19T00:02:08.722Z,44.76
2023-01-19T00:05:12.064Z,44.87
2023-01-19T00:08:16.763Z,44.35
2023-01-19T00:11:23.059Z,44.68
2023-01-19T00:14:27.996Z,44.54
2023-01-19T00:17:31.367Z,44.79
2023-01-19T00:20:40.723Z,44.84
2023-01-19T00:23:47.335Z,44.60
2023-01-19T00:26:50.964Z,44.45
2023-01-19T00:29:55.508Z,44.57
2023-01-19T00:32:59.555Z,44.37
2023-01-19T00:36:03.633Z,44.30
2023-01-19T00:39:07.425Z,44.76
2023-01-19T00:42:30.947Z,44.50
2023-01-19T00:45:36.166Z,44.68
2023-01-19T00:48:39.374Z,44.73
2023-01-19T00:51:43.043Z,44.77
2023-01-19T00:54:46.229Z,44.54
2023-01-19T00:57:50.207Z,44.41
2023-01-19T01:00:57.462Z,44.42
2023-01-19T01:04:03.477Z,44.54
2023-01-19T01:07:06.788Z,44.46
2023-01-19T01:10:13.325Z,44.54
2023-01-19T01:13:20.129Z,44.44
2023-01-19T01:16:30.000Z,44.65
2023-01-19T01:19:33.236Z,44.21
2023-01-19T01:22:39.073Z,44.02
2023-01-19T01:25:43.405Z,44.04
2023-01-19T01:28:46.990Z,44.21
2023-01-19T01:31:51.576Z,44.11
2023-01-19T01:34:55.230Z,44.12
2023-01-19T01:37:59.378Z,43.89
2023-01-19T01:41:03.016Z,44.08
2023-01-19T01:44:50.941Z,43.64
2023-01-19T01:48:02.083Z,43.84
2023-01-19T01:51:27.147Z,43.70
2023-01-19T01:54:34.593Z,43.68
2023-01-19T01:57:42.949Z,43.83
2023-01-19T02:01:04.604Z,43.43
2023-01-19T02:04:09.474Z,43.66
2023-01-19T02:07:39.088Z,43.39
2023-01-19T02:11:01.640Z,43.68
2023-01-19T02:14:06.428Z,43.31
2023-01-19T02:17:09.642Z,43.31
2023-01-19T02:20:15.795Z,43.28
2023-01-19T02:23:34.552Z,43.38
2023-01-19T02:26:45.914Z,43.17
2023-01-19T02:29:52.159Z,43.24
2023-01-19T02:32:55.617Z,43.24
2023-01-19T02:35:59.367Z,43.08
2023-01-19T02:39:09.124Z,43.25
2023-01-19T02:42:18.424Z,42.96
2023-01-19T02:45:24.711Z,43.16
2023-01-19T02:48:27.970Z,42.79
2023-01-19T02:51:32.319Z,42.82
2023-01-19T02:54:54.096Z,42.95
2023-01-19T02:58:08.904Z,42.90
2023-01-19T03:01:27.786Z,42.59
2023-01-19T03:04:54.683Z,42.83
2023-01-19T03:08:12.093Z,42.79
2023-01-19T03:11:17.623Z,42.82
2023-01-19T03:14:28.480Z,42.84
2023-01-19T03:17:33.914Z,42.54
2023-01-19T03:20:40.907Z,42.76
2023-01-19T03:23:48.175Z,42.83
2023-01-19T03:27:01.816Z,42.80
2023-01-19T03:30:13.303Z,42.69
2023-01-19T03:33:26.620Z,42.52
2023-01-19T03:36:37.398Z,42.47
2023-01-19T03:39:41.183Z,42.61
2023-01-19T03:42:47.716Z,42.64
2023-01-19T03:45:53.703Z,42.50
2023-01-19T03:48:59.677Z,42.48
2023-01-19T03:52:03.253Z,42.38
2023-01-19T03:55:09.905Z,42.41
2023-01-19T03:58:15.235Z,42.37
2023-01-19T04:01:22.863Z,42.41
2023-01-19T04:04:29.224Z,42.43
2023-01-19T04:07:32.722Z,41.96
2023-01-19T04:10:36.040Z,42.41
2023-01-19T04:13:41.100Z,42.50
2023-01-19T04:16:44.597Z,42.32
2023-01-19T04:19:48.308Z,42.43
2023-01-19T04:22:51.818Z,42.37
2023-01-19T04:25:59.618Z,42.32
2023-01-19T04:29:04.516Z,42.16
2023-01-19T04:32:08.109Z,42.19
2023-01-19T04:35:11.474Z,42.28
2023-01-19T04:38:15.276Z,42.34
2023-01-19T04:41:18.644Z,42.28
2023-01-19T04:44:23.559Z,42.11
2023-01-19T04:47:27.074Z,42.21
2023-01-19T04:50:30.592Z,41.93
2023-01-19T04:53:34.423Z,41.95
2023-01-19T04:56:38.440Z,41.98
2023-01-19T04:59:44.366Z,42.03
2023-01-19T05:02:48.076Z,41.93
2023-01-19T05:05:51.923Z,42.28
2023-01-19T05:08:55.404Z,42.17
2023-01-19T05:11:58.556Z,42.13
2023-01-19T05:15:03.617Z,42.19
2023-01-19T05:18:07.181Z,42.08
2023-01-19T05:21:10.690Z,42.02
2023-01-19T05:24:14.193Z,42.06
2023-01-19T05:27:17.999Z,41.90
2023-01-19T05:30:22.628Z,41.88
2023-01-19T05:33:27.683Z,41.90
2023-01-19T05:36:31.980Z,41.95
2023-01-19T05:39:35.682Z,41.97
2023-01-19T05:42:39.575Z,41.90
2023-01-19T05:45:45.568Z,42.00
2023-01-19T05:48:49.204Z,41.90
2023-01-19T05:51:52.917Z,41.95
2023-01-19T05:54:56.417Z,41.91
2023-01-19T05:58:00.429Z,41.81
2023-01-19T06:01:06.872Z,41.97
2023-01-19T06:04:10.370Z,41.77
2023-01-19T06:07:13.852Z,41.84
2023-01-19T06:10:18.079Z,41.93
2023-01-19T06:13:21.351Z,41.87
2023-01-19T06:16:26.497Z,41.86
2023-01-19T06:19:30.200Z,42.00
2023-01-19T06:22:34.457Z,41.91
2023-01-19T06:25:37.828Z,41.79
2023-01-19T06:28:41.706Z,41.83
2023-01-19T06:31:46.658Z,42.01
2023-01-19T06:34:52.667Z,41.83
2023-01-19T06:37:57.713Z,41.84
2023-01-19T06:41:03.084Z,42.09
2023-01-19T06:44:06.934Z,41.77
2023-01-19T06:47:14.956Z,42.00
2023-01-19T06:50:19.770Z,42.21
2023-01-19T06:53:23.544Z,42.10
2023-01-19T06:56:27.168Z,41.93
2023-01-19T06:59:30.850Z,42.12
2023-01-19T07:02:36.237Z,41.77
2023-01-19T07:05:39.745Z,42.24
2023-01-19T07:08:43.093Z,42.14
2023-01-19T07:11:46.780Z,42.05
2023-01-19T07:14:50.478Z,42.27
2023-01-19T07:17:59.248Z,41.96
2023-01-19T07:21:02.695Z,42.15
2023-01-19T07:24:07.317Z,41.88
2023-01-19T07:27:11.587Z,41.93
2023-01-19T07:30:16.935Z,41.64
2023-01-19T07:33:22.061Z,41.75
2023-01-19T07:36:26.048Z,41.64
2023-01-19T07:39:30.856Z,41.83
2023-01-19T07:42:34.619Z,41.60
2023-01-19T07:45:37.958Z,41.54
2023-01-19T07:48:44.398Z,41.75
2023-01-19T07:51:47.707Z,41.83
2023-01-19T07:54:51.695Z,41.70
2023-01-19T07:57:54.952Z,41.62
2023-01-19T08:00:58.503Z,41.89
2023-01-19T08:04:03.096Z,42.02
2023-01-19T08:07:06.710Z,42.24
2023-01-19T08:10:12.243Z,42.49
2023-01-19T08:13:15.893Z,42.79
2023-01-19T08:16:19.143Z,43.08
2023-01-19T08:19:24.387Z,43.07
2023-01-19T08:22:27.769Z,42.95
2023-01-19T08:25:35.890Z,43.35
2023-01-19T08:28:39.065Z,43.56
2023-01-19T08:31:43.981Z,43.79
2023-01-19T08:34:48.612Z,43.96
2023-01-19T08:37:52.106Z,44.44
2023-01-19T08:40:55.241Z,44.70
2023-01-19T08:43:58.910Z,44.82
2023-01-19T08:47:02.462Z,45.14
2023-01-19T08:50:09.195Z,45.14
2023-01-19T08:53:12.429Z,45.26
2023-01-19T08:56:16.079Z,45.45
2023-01-19T08:59:19.216Z,45.27
2023-01-19T09:02:22.872Z,45.21
2023-01-19T09:05:27.763Z,45.36
2023-01-19T09:08:31.318Z,45.27
2023-01-19T09:11:35.023Z,45.17
2023-01-19T09:14:39.084Z,45.10
2023-01-19T09:17:42.700Z,45.15
2023-01-19T09:20:50.139Z,45.09
2023-01-19T09:23:54.775Z,45.17
2023-01-19T09:26:58.570Z,44.98
2023-01-19T09:30:01.839Z,45.20
2023-01-19T09:33:07.531Z,45.02
2023-01-19T09:36:12.075Z,44.97
2023-01-19T09:39:15.931Z,45.01
2023-01-19T09:42:32.158Z,44.63
2023-01-19T09:45:43.116Z,44.64
2023-01-19T09:48:52.273Z,44.74
2023-01-19T09:51:57.499Z,44.93
2023-01-19T09:55:00.649Z,45.54
2023-01-19T09:58:13.493Z,46.48
2023-01-19T10:01:37.315Z,47.15
2023-01-19T10:04:42.864Z,47.71
2023-01-19T10:08:11.949Z,47.54
2023-01-19T10:11:42.116Z,47.76
2023-01-19T10:15:04.209Z,47.32
2023-01-19T10:18:18.161Z,47.10
2023-01-19T10:21:26.141Z,46.61
2023-01-19T10:24:40.747Z,46.60
2023-01-19T10:27:46.338Z,46.70
2023-01-19T10:30:50.771Z,46.63
2023-01-19T10:33:55.211Z,46.10
2023-01-19T10:37:07.575Z,45.88
2023-01-19T10:40:33.290Z,45.95
2023-01-19T10:43:41.781Z,45.84
2023-01-19T10:46:48.066Z,46.09
2023-01-19T10:49:52.179Z,46.14
2023-01-19T10:52:58.260Z,45.96
2023-01-19T10:56:25.432Z,45.97
2023-01-19T10:59:35.554Z,45.61
2023-01-19T11:02:51.156Z,45.84
2023-01-19T11:05:55.170Z,45.81
2023-01-19T11:09:17.862Z,45.86
2023-01-19T11:12:24.831Z,45.51
2023-01-19T11:15:43.907Z,46.12
2023-01-19T11:18:47.661Z,46.94
2023-01-19T11:22:22.106Z,47.04
2023-01-19T11:25:32.639Z,46.94
2023-01-19T11:28:45.087Z,47.05
2023-01-19T11:31:48.873Z,46.64
2023-01-19T11:34:54.042Z,46.79
2023-01-19T11:38:14.730Z,46.84
2023-01-19T11:41:23.377Z,46.62
2023-01-19T11:44:33.794Z,46.93
2023-01-19T11:47:44.163Z,46.43
2023-01-19T11:50:50.389Z,44.28
2023-01-19T11:53:54.392Z,43.21
2023-01-19T11:57:01.911Z,43.15
2023-01-19T12:00:29.738Z,43.29
2023-01-19T12:03:44.824Z,43.39
2023-01-19T12:06:59.120Z,43.37
2023-01-19T12:10:21.723Z,44.08
2023-01-19T12:13:28.790Z,44.07
2023-01-19T12:16:47.708Z,44.36
2023-01-19T12:20:05.032Z,44.46
2023-01-19T12:23:27.676Z,44.53
2023-01-19T12:26:37.678Z,44.45
2023-01-19T12:29:42.967Z,44.41
2023-01-19T12:32:48.827Z,44.59
2023-01-19T12:35:57.990Z,44.39
2023-01-19T12:39:05.791Z,44.41
2023-01-19T12:42:16.877Z,44.48
2023-01-19T12:45:25.719Z,44.31
2023-01-19T12:48:33.587Z,44.56
2023-01-19T12:51:37.472Z,44.71
2023-01-19T12:54:51.036Z,44.79
2023-01-19T12:58:04.177Z,44.57
2023-01-19T13:01:21.653Z,44.42
2023-01-19T13:04:34.915Z,44.58
2023-01-19T13:08:18.985Z,44.65
2023-01-19T13:11:26.032Z,44.38
2023-01-19T13:14:39.266Z,44.47
2023-01-19T13:17:52.172Z,44.71
2023-01-19T13:21:02.488Z,44.45
2023-01-19T13:24:09.485Z,44.77
2023-01-19T13:27:14.522Z,44.75
2023-01-19T13:30:23.312Z,44.69
2023-01-19T13:33:32.677Z,44.71
2023-01-19T13:36:44.979Z,44.56
2023-01-19T13:39:53.045Z,44.67
2023-01-19T13:42:57.700Z,44.81
2023-01-19T13:46:03.512Z,45.08
2023-01-19T13:49:21.357Z,45.09
2023-01-19T13:52:28.577Z,45.16
2023-01-19T13:55:33.018Z,45.10
2023-01-19T13:58:36.525Z,45.08
2023-01-19T14:01:42.872Z,45.14
2023-01-19T14:04:46.372Z,46.82
2023-01-19T14:08:06.107Z,48.00
2023-01-19T14:11:15.193Z,48.36
2023-01-19T14:14:27.921Z,48.75
2023-01-19T14:17:32.589Z,48.34
2023-01-19T14:20:37.012Z,47.90
2023-01-19T14:23:47.137Z,48.02
2023-01-19T14:26:53.970Z,47.98
2023-01-19T14:30:21.939Z,47.73
2023-01-19T14:33:37.359Z,47.95
2023-01-19T14:36:42.001Z,48.16
2023-01-19T14:39:50.192Z,48.16
2023-01-19T14:42:57.611Z,47.64
2023-01-19T14:46:01.101Z,47.45
2023-01-19T14:49:07.568Z,47.51
2023-01-19T14:52:25.340Z,47.36
2023-01-19T14:55:46.221Z,47.30
2023-01-19T14:58:49.880Z,47.37
2023-01-19T15:01:53.388Z,47.52
2023-01-19T15:04:57.891Z,47.05
2023-01-19T15:08:04.121Z,46.91
2023-01-19T15:11:14.030Z,46.97
2023-01-19T15:14:20.036Z,47.13
2023-01-19T15:17:26.279Z,46.78
2023-01-19T15:20:29.817Z,46.63
2023-01-19T15:23:34.336Z,46.70
2023-01-19T15:26:41.414Z,47.18
2023-01-19T15:29:46.068Z,47.87
2023-01-19T15:32:49.887Z,48.18
2023-01-19T15:35:53.774Z,48.58
2023-01-19T15:38:57.540Z,48.57
2023-01-19T15:42:02.735Z,48.60
2023-01-19T15:45:35.255Z,48.93
2023-01-19T15:48:39.193Z,48.83
2023-01-19T15:51:43.177Z,48.96
2023-01-19T15:54:47.228Z,49.29
2023-01-19T15:57:51.904Z,49.38
2023-01-19T16:00:57.560Z,49.40
2023-01-19T16:04:02.909Z,49.85
2023-01-19T16:07:06.491Z,49.97
2023-01-19T16:10:12.705Z,50.13
2023-01-19T16:13:17.705Z,49.82
2023-01-19T16:16:24.457Z,50.10
2023-01-19T16:19:28.376Z,50.04
2023-01-19T16:22:31.689Z,50.12
2023-01-19T16:25:35.804Z,50.07
2023-01-19T16:28:40.699Z,49.87
2023-01-19T16:31:45.808Z,50.29
2023-01-19T16:34:50.568Z,50.92
2023-01-19T16:37:54.002Z,50.83
2023-01-19T16:40:57.290Z,50.59
2023-01-19T16:44:03.081Z,50.54
2023-01-19T16:47:06.602Z,50.24
2023-01-19T16:50:12.878Z,50.30
2023-01-19T16:53:16.491Z,49.64
2023-01-19T16:56:20.301Z,49.79
2023-01-19T16:59:27.101Z,49.64
2023-01-19T17:02:31.234Z,50.27
2023-01-19T17:05:34.669Z,50.65
2023-01-19T17:08:39.157Z,50.73
2023-01-19T17:11:42.698Z,50.75
2023-01-19T17:14:48.437Z,50.59
2023-01-19T17:17:52.084Z,50.18
2023-01-19T17:20:56.137Z,50.11
2023-01-19T17:24:00.739Z,49.93
2023-01-19T17:27:04.378Z,50.34
2023-01-19T17:30:11.504Z,50.30
2023-01-19T17:33:15.451Z,50.70
2023-01-19T17:36:22.267Z,50.90
2023-01-19T17:39:25.849Z,51.24
2023-01-19T17:42:32.064Z,51.55
2023-01-19T17:45:38.467Z,51.83
2023-01-19T17:48:46.264Z,52.28
2023-01-19T17:51:54.333Z,52.90
2023-01-19T17:54:58.043Z,53.47
2023-01-19T17:58:02.633Z,54.57
2023-01-19T18:01:11.773Z,54.54
2023-01-19T18:04:15.504Z,54.53
2023-01-19T18:07:19.121Z,53.98
2023-01-19T18:10:26.082Z,53.85
2023-01-19T18:13:30.554Z,54.23
2023-01-19T18:16:36.986Z,53.49
2023-01-19T18:19:40.479Z,52.91
2023-01-19T18:22:44.004Z,53.16
2023-01-19T18:25:47.289Z,53.24
2023-01-19T18:28:51.593Z,52.84
2023-01-19T18:31:58.758Z,52.40
2023-01-19T18:35:02.532Z,52.03
2023-01-19T18:38:05.808Z,51.94
2023-01-19T18:41:13.160Z,51.54
2023-01-19T18:44:16.963Z,51.74
2023-01-19T18:47:21.815Z,52.42
2023-01-19T18:50:25.156Z,52.06
2023-01-19T18:53:28.576Z,51.92
2023-01-19T18:56:31.747Z,51.83
2023-01-19T18:59:35.711Z,52.39
2023-01-19T19:02:40.511Z,52.50
2023-01-19T19:05:44.712Z,52.01
2023-01-19T19:08:49.999Z,52.05
2023-01-19T19:11:53.844Z,51.85
2023-01-19T19:14:57.126Z,51.43
2023-01-19T19:18:01.949Z,51.28
2023-01-19T19:21:06.594Z,51.29
2023-01-19T19:24:11.563Z,51.16
2023-01-19T19:27:14.988Z,50.84
2023-01-19T19:30:19.868Z,50.71
2023-01-19T19:33:24.441Z,50.53
2023-01-19T19:36:29.495Z,50.60
2023-01-19T19:39:32.677Z,50.55
2023-01-19T19:42:36.670Z,50.46
2023-01-19T19:45:40.017Z,51.01
2023-01-19T19:48:47.972Z,50.64
2023-01-19T19:51:51.214Z,50.87
2023-01-19T19:54:54.914Z,50.70
2023-01-19T19:57:58.105Z,50.42
2023-01-19T20:01:03.920Z,50.00
2023-01-19T20:04:14.238Z,50.31
2023-01-19T20:07:18.126Z,49.76
2023-01-19T20:10:21.644Z,49.43
2023-01-19T20:13:28.076Z,49.82
2023-01-19T20:16:31.501Z,49.24
2023-01-19T20:19:36.514Z,49.46
2023-01-19T20:22:39.753Z,49.76
2023-01-19T20:25:43.416Z,49.69
2023-01-19T20:28:46.968Z,50.21
2023-01-19T20:31:54.153Z,49.99
2023-01-19T20:34:58.819Z,50.15
2023-01-19T20:38:02.280Z,50.55
2023-01-19T20:41:06.728Z,50.44
2023-01-19T20:44:11.491Z,50.75
2023-01-19T20:47:15.082Z,50.96
2023-01-19T20:50:20.431Z,50.65
2023-01-19T20:53:23.959Z,50.77
2023-01-19T20:56:27.859Z,50.47
2023-01-19T20:59:34.084Z,50.78
2023-01-19T21:02:37.821Z,50.31
2023-01-19T21:05:42.619Z,50.17
2023-01-19T21:08:47.193Z,50.15
2023-01-19T21:11:52.526Z,50.46
2023-01-19T21:14:56.980Z,50.69
2023-01-19T21:18:01.718Z,50.85
2023-01-19T21:21:10.698Z,50.36
2023-01-19T21:24:18.540Z,50.75
2023-01-19T21:27:22.126Z,50.59
2023-01-19T21:30:25.535Z,49.97
2023-01-19T21:33:28.986Z,49.76
2023-01-19T21:36:34.008Z,49.70
2023-01-19T21:39:37.681Z,49.73
2023-01-19T21:42:41.701Z,49.95
2023-01-19T21:45:45.437Z,49.71
2023-01-19T21:48:49.352Z,49.40
2023-01-19T21:51:55.253Z,49.78
2023-01-19T21:54:58.618Z,49.32
2023-01-19T21:58:02.309Z,49.06
2023-01-19T22:01:10.799Z,49.14
2023-01-19T22:04:14.409Z,48.96
2023-01-19T22:07:19.349Z,49.43
2023-01-19T22:10:22.895Z,49.34
2023-01-19T22:13:26.168Z,49.20
2023-01-19T22:16:30.385Z,48.72
2023-01-19T22:19:33.862Z,48.97
2023-01-19T22:22:38.685Z,49.09
2023-01-19T22:26:00.211Z,49.10
2023-01-19T22:29:05.704Z,48.90
2023-01-19T22:32:09.438Z,48.75
2023-01-19T22:35:13.097Z,48.44
2023-01-19T22:38:21.173Z,48.61
2023-01-19T22:41:27.393Z,48.34
2023-01-19T22:44:30.599Z,48.40
2023-01-19T22:47:34.691Z,48.24
2023-01-19T22:50:38.007Z,48.58
2023-01-19T22:53:44.472Z,48.14
2023-01-19T22:56:47.766Z,47.97
2023-01-19T22:59:51.314Z,47.97
2023-01-19T23:02:54.586Z,47.85
2023-01-19T23:05:58.078Z,48.30
2023-01-19T23:09:06.723Z,47.80
2023-01-19T23:12:10.227Z,47.73
2023-01-19T23:15:13.745Z,47.89
2023-01-19T23:18:17.482Z,47.77
2023-01-19T23:21:24.435Z,47.79
2023-01-19T23:24:29.249Z,48.09
2023-01-19T23:27:32.641Z,48.20
2023-01-19T23:30:36.157Z,48.20
2023-01-19T23:33:39.492Z,48.12
2023-01-19T23:36:44.544Z,48.18
2023-01-19T23:39:49.206Z,47.59
2023-01-19T23:42:52.757Z,47.70
2023-01-19T23:45:56.136Z,47.74
2023-01-19T23:48:59.595Z,47.55
2023-01-19T23:52:02.744Z,47.67
2023-01-19T23:55:09.398Z,47.59
2023-01-19T23:58:12.608Z,48.05
